Time;durP1;ratioP1;P1;durP2;ratioP2;P2;SDS_P1;SDS_P2;PMS_P1;PMS_P2;Temp;Humidity;BMP_temperature;BMP_pressure;BME280_temperature;BME280_humidity;BME280_pressure;Samples;Min_cycle;Max_cycle;Signal;HPM_P1;HPM_P2
2022/10/04 00:00:49;;;;;;;;;;;;;;;17.45;67.69;102021.31;1021607;29;673;-71
2022/10/04 00:01:40;;;;;;;;;;;;;;;17.45;68.11;102018.59;1021111;29;730;-68
2022/10/04 00:02:30;;;;;;;;;;;;;;;17.45;68.20;102017.75;1021063;29;667;-69
2022/10/04 00:03:21;;;;;;;;;;;;;;;17.45;68.08;102017.75;1021031;29;635;-69
2022/10/04 00:04:11;;;;;;;;;;;;;;;17.43;68.11;102015.16;1020578;29;552;-69
2022/10/04 00:05:02;;;;;;;;;;;;;;;17.43;67.37;102014.31;1021156;29;622;-69
2022/10/04 00:05:53;;;;;;;;;;;;;;;17.44;68.14;102010.63;1021048;29;636;-69
2022/10/04 00:06:43;;;;;;;;;;;;;;;17.44;68.31;102011.50;1021093;29;611;-69
2022/10/04 00:07:34;;;;;;;;;;;;;;;17.44;67.74;102010.63;1024332;29;639;-69
2022/10/04 00:08:24;;;;;;;;;;;;;;;17.44;68.15;102006.09;1024724;29;659;-69
2022/10/04 00:09:15;;;;;;;;;;;;;;;17.44;67.90;102016.03;1021183;29;619;-69
2022/10/04 00:10:05;;;;;;;;;;;;;;;17.43;67.96;102012.47;1023062;29;1570;-69
2022/10/04 00:10:56;;;;;;;;;;;;;;;17.42;68.18;102010.75;1025086;29;729;-69
2022/10/04 00:11:46;;;;;;;;;;;;;;;17.42;68.32;102008.06;1025051;29;681;-69
2022/10/04 00:12:36;;;;;;;;;;;;;;;17.43;68.39;102014.31;1024617;29;678;-70
2022/10/04 00:13:27;;;;;;;;;;;;;;;17.43;68.06;102009.78;1024866;29;646;-69
2022/10/04 00:14:17;;;;;;;;;;;;;;;17.43;68.34;101999.00;1024972;29;564;-69
2022/10/04 00:15:08;;;;;;;;;;;;;;;17.43;68.17;101999.00;1025144;29;667;-69
2022/10/04 00:15:58;;;;;;;;;;;;;;;17.43;67.40;101992.75;1025633;29;682;-69
2022/10/04 00:16:48;;;;;;;;;;;;;;;17.43;68.09;101995.44;1024815;29;1626;-69
2022/10/04 00:17:39;;;;;;;;;;;;;;;17.43;67.57;101998.13;1024942;29;701;-69
2022/10/04 00:18:30;;;;;;;;;;;;;;;17.41;68.01;101997.38;1029205;28;1056;-69
2022/10/04 00:19:21;;;;;;;;;;;;;;;17.40;67.92;102001.91;1029310;28;840;-69
2022/10/04 00:20:11;;;;;;;;;;;;;;;17.41;68.11;101995.56;1025045;29;650;-69
2022/10/04 00:21:01;;;;;;;;;;;;;;;17.40;68.29;101992.97;1025109;29;662;-69
2022/10/04 00:21:52;;;;;;;;;;;;;;;17.40;68.07;101999.22;1024898;29;701;-69
2022/10/04 00:22:42;;;;;;;;;;;;;;;17.40;67.81;102001.91;1024987;29;543;-69
2022/10/04 00:23:33;;;;;;;;;;;;;;;17.40;67.36;101992.97;1029157;28;741;-69
2022/10/04 00:24:23;;;;;;;;;;;;;;;17.39;67.95;101994.81;1028619;28;713;-69
2022/10/04 00:25:16;;;;;;;;;;;;;;;17.39;68.00;101997.50;1025118;29;733;-69
2022/10/04 00:26:06;;;;;;;;;;;;;;;17.38;68.15;101990.38;1021449;29;1594;-69
2022/10/04 00:26:57;;;;;;;;;;;;;;;17.39;67.94;101981.34;1020608;29;670;-70
2022/10/04 00:27:47;;;;;;;;;;;;;;;17.39;68.30;101978.63;1021516;29;646;-69
2022/10/04 00:28:38;;;;;;;;;;;;;;;17.40;67.49;101996.53;1021535;29;725;-69
2022/10/04 00:29:29;;;;;;;;;;;;;;;17.38;68.12;101995.78;1021135;29;733;-70
2022/10/04 00:30:19;;;;;;;;;;;;;;;17.38;68.57;101981.47;1021531;29;649;-70
2022/10/04 00:31:10;;;;;;;;;;;;;;;17.37;67.38;101988.69;1021104;29;646;-70
2022/10/04 00:32:00;;;;;;;;;;;;;;;17.38;67.88;101986.88;1021467;29;646;-69
2022/10/04 00:32:50;;;;;;;;;;;;;;;17.37;68.47;101987.84;1021564;29;748;-70
2022/10/04 00:33:41;;;;;;;;;;;;;;;17.37;68.38;101986.00;1021671;29;662;-70
2022/10/04 00:34:31;;;;;;;;;;;;;;;17.37;68.59;101980.63;1021541;29;713;-70
2022/10/04 00:35:22;;;;;;;;;;;;;;;17.36;68.16;101978.91;1021051;29;686;-70
2022/10/04 00:36:12;;;;;;;;;;;;;;;17.37;67.99;101991.41;1021447;29;643;-70
2022/10/04 00:37:03;;;;;;;;;;;;;;;17.38;67.76;101989.56;1018175;29;725;-70
2022/10/04 00:37:53;;;;;;;;;;;;;;;17.38;68.45;101992.25;1023874;29;1453;-70
2022/10/04 00:38:43;;;;;;;;;;;;;;;17.37;68.00;101991.41;1017846;29;673;-70
2022/10/04 00:39:34;;;;;;;;;;;;;;;17.38;68.04;101997.66;1019525;29;2005;-70
2022/10/04 00:40:24;;;;;;;;;;;;;;;17.38;68.16;101997.66;1020926;29;646;-70
2022/10/04 00:41:15;;;;;;;;;;;;;;;17.37;67.59;101999.47;1020936;29;642;-70
2022/10/04 00:42:05;;;;;;;;;;;;;;;17.37;68.23;101994.09;1021439;29;681;-70
2022/10/04 00:42:56;;;;;;;;;;;;;;;17.36;67.91;101992.38;1021606;29;897;-70
2022/10/04 00:43:46;;;;;;;;;;;;;;;17.36;68.59;101995.06;1021438;29;706;-70
2022/10/04 00:44:36;;;;;;;;;;;;;;;17.35;67.97;101994.19;1020812;29;1203;-69
2022/10/04 00:45:27;;;;;;;;;;;;;;;17.37;68.02;101994.09;1021423;29;1266;-70
2022/10/04 00:46:17;;;;;;;;;;;;;;;17.34;68.33;101984.41;1020574;29;643;-70
2022/10/04 00:47:08;;;;;;;;;;;;;;;17.37;68.48;101990.53;1021035;29;624;-70
2022/10/04 00:47:58;;;;;;;;;;;;;;;17.35;68.34;101990.66;1020875;29;635;-69
2022/10/04 00:48:48;;;;;;;;;;;;;;;17.34;68.05;101989.78;1021067;29;674;-70
2022/10/04 00:49:40;;;;;;;;;;;;;;;17.34;69.00;101988.94;1020850;29;616;-69
2022/10/04 00:50:30;;;;;;;;;;;;;;;17.35;68.77;101990.66;1020906;29;705;-69
2022/10/04 00:51:21;;;;;;;;;;;;;;;17.35;68.95;101985.25;1021021;29;674;-70
2022/10/04 00:52:11;;;;;;;;;;;;;;;17.34;68.55;101983.53;1020971;29;535;-70
2022/10/04 00:53:02;;;;;;;;;;;;;;;17.35;69.27;101979.88;1020945;29;651;-69
2022/10/04 00:53:52;;;;;;;;;;;;;;;17.34;68.79;101975.44;1021227;29;1381;-70
2022/10/04 00:54:43;;;;;;;;;;;;;;;17.34;68.64;101983.53;1024940;29;717;-70
2022/10/04 00:55:33;;;;;;;;;;;;;;;17.35;68.96;101974.47;1024628;29;1563;-69
2022/10/04 00:56:24;;;;;;;;;;;;;;;17.36;68.56;101976.19;1024888;29;710;-69
2022/10/04 00:57:14;;;;;;;;;;;;;;;17.34;68.26;101968.22;1024732;29;634;-69
2022/10/04 00:58:06;;;;;;;;;;;;;;;17.35;68.46;101966.41;1024905;29;677;-69
2022/10/04 00:58:57;;;;;;;;;;;;;;;17.35;68.63;101974.47;1024823;29;662;-69
2022/10/04 00:59:47;;;;;;;;;;;;;;;17.34;68.49;101968.22;1024887;29;1962;-69
2022/10/04 01:00:37;;;;;;;;;;;;;;;17.34;68.80;101975.44;1024908;29;619;-69
2022/10/04 01:01:28;;;;;;;;;;;;;;;17.33;68.98;101971.03;1029045;28;710;-69
2022/10/04 01:02:18;;;;;;;;;;;;;;;17.35;68.67;101971.78;1028563;28;630;-69
2022/10/04 01:03:09;;;;;;;;;;;;;;;17.34;68.61;101973.63;1024940;29;686;-69
2022/10/04 01:03:59;;;;;;;;;;;;;;;17.35;69.06;101975.34;1024912;29;643;-69
2022/10/04 01:04:50;;;;;;;;;;;;;;;17.34;68.05;101967.38;1024900;29;674;-70
2022/10/04 01:05:40;;;;;;;;;;;;;;;17.34;68.12;101957.44;1024751;29;816;-69
2022/10/04 01:06:30;;;;;;;;;;;;;;;17.34;68.59;101965.53;1024848;29;627;-69
2022/10/04 01:07:21;;;;;;;;;;;;;;;17.34;68.59;101960.16;1024819;29;631;-69
2022/10/04 01:08:12;;;;;;;;;;;;;;;17.33;68.01;101954.88;1024906;29;693;-69
2022/10/04 01:09:02;;;;;;;;;;;;;;;17.33;68.69;101950.34;1024891;29;638;-69
2022/10/04 01:09:53;;;;;;;;;;;;;;;17.33;68.21;101957.56;1024891;29;690;-69
2022/10/04 01:10:43;;;;;;;;;;;;;;;17.31;68.37;101952.28;1021197;29;1424;-69
2022/10/04 01:11:34;;;;;;;;;;;;;;;17.31;68.28;101951.44;1021351;29;685;-69
2022/10/04 01:12:24;;;;;;;;;;;;;;;17.32;68.24;101945.06;1020811;29;713;-69
2022/10/04 01:13:15;;;;;;;;;;;;;;;17.32;68.86;101936.97;1021405;29;724;-70
2022/10/04 01:14:05;;;;;;;;;;;;;;;17.32;68.70;101934.28;1021419;29;645;-69
2022/10/04 01:14:55;;;;;;;;;;;;;;;17.32;68.93;101928.91;1021342;29;627;-69
2022/10/04 01:15:46;;;;;;;;;;;;;;;17.32;67.92;101929.75;1021351;29;627;-69
2022/10/04 01:16:36;;;;;;;;;;;;;;;17.33;69.04;101930.63;1021366;29;678;-69
2022/10/04 01:17:27;;;;;;;;;;;;;;;17.32;68.21;101927.06;1021383;29;654;-70
2022/10/04 01:18:17;;;;;;;;;;;;;;;17.32;68.68;101926.22;1020824;29;813;-69
2022/10/04 01:19:07;;;;;;;;;;;;;;;17.32;68.95;101920.81;1021437;29;686;-69
2022/10/04 01:19:58;;;;;;;;;;;;;;;17.30;68.63;101917.38;1021245;29;1891;-70
2022/10/04 01:20:48;;;;;;;;;;;;;;;17.29;69.16;101923.75;1021434;29;575;-69
2022/10/04 01:21:39;;;;;;;;;;;;;;;17.29;69.05;101929.13;1025016;29;777;-71
2022/10/04 01:22:29;;;;;;;;;;;;;;;17.30;68.86;101925.47;1024496;29;646;-70
2022/10/04 01:23:20;;;;;;;;;;;;;;;17.31;68.38;101929.88;1020931;29;726;-70
2022/10/04 01:24:10;;;;;;;;;;;;;;;17.30;69.08;101937.09;1020708;29;706;-70
2022/10/04 01:25:01;;;;;;;;;;;;;;;17.30;68.79;101931.72;1024582;29;655;-70
2022/10/04 01:25:51;;;;;;;;;;;;;;;17.30;68.25;101938.94;1024377;29;694;-70
2022/10/04 01:26:42;;;;;;;;;;;;;;;17.30;68.01;101928.16;1021838;29;1669;-70
2022/10/04 01:27:32;;;;;;;;;;;;;;;17.30;68.94;101933.53;1021300;29;590;-70
2022/10/04 01:28:22;;;;;;;;;;;;;;;17.29;68.76;101934.50;1021218;29;614;-70
2022/10/04 01:29:13;;;;;;;;;;;;;;;17.28;68.70;101939.03;1020770;29;670;-70
2022/10/04 01:30:03;;;;;;;;;;;;;;;17.30;68.36;101933.53;1021291;29;1586;-70
2022/10/04 01:30:54;;;;;;;;;;;;;;;17.28;68.64;101952.53;1025103;29;1549;-70
2022/10/04 01:31:44;;;;;;;;;;;;;;;17.28;68.60;101951.66;1029130;28;662;-71
2022/10/04 01:32:35;;;;;;;;;;;;;;;17.28;68.90;101955.22;1028447;28;662;-70
2022/10/04 01:33:26;;;;;;;;;;;;;;;17.28;68.82;101954.34;1024718;29;693;-70
2022/10/04 01:34:16;;;;;;;;;;;;;;;17.27;68.08;101953.50;1024614;29;721;-70
2022/10/04 01:35:06;;;;;;;;;;;;;;;17.28;68.09;101957.91;1024651;29;658;-70
2022/10/04 01:35:57;;;;;;;;;;;;;;;17.28;68.50;101957.03;1024758;29;651;-70
2022/10/04 01:36:47;;;;;;;;;;;;;;;17.28;68.85;101951.66;1024617;29;639;-70
2022/10/04 01:37:41;;;;;;;;;;;;;;;17.29;67.96;101958.75;1024736;29;686;-70
2022/10/04 01:38:31;;;;;;;;;;;;;;;17.28;68.11;101951.66;1024640;29;682;-70
2022/10/04 01:39:22;;;;;;;;;;;;;;;17.27;68.56;101944.53;1024327;29;674;-69
2022/10/04 01:40:12;;;;;;;;;;;;;;;17.27;68.71;101947.25;1024675;29;651;-69
2022/10/04 01:41:03;;;;;;;;;;;;;;;17.26;68.71;101941.00;1024587;29;695;-70
2022/10/04 01:41:54;;;;;;;;;;;;;;;17.25;68.69;101938.41;1024720;29;674;-70
2022/10/04 01:42:44;;;;;;;;;;;;;;;17.24;68.38;101939.38;1020829;29;1412;-70
2022/10/04 01:43:35;;;;;;;;;;;;;;;17.25;68.71;101933.03;1020147;29;1186;-70
2022/10/04 01:44:25;;;;;;;;;;;;;;;17.25;69.16;101935.72;1021034;29;1283;-70
2022/10/04 01:45:16;;;;;;;;;;;;;;;17.25;68.55;101924.94;1020088;29;1069;-70
2022/10/04 01:46:06;;;;;;;;;;;;;;;17.26;68.57;101926.66;1020524;29;1201;-69
2022/10/04 01:46:57;;;;;;;;;;;;;;;17.26;68.07;101927.53;1022906;29;1153;-70
2022/10/04 01:47:47;;;;;;;;;;;;;;;17.25;68.53;101920.41;1021395;29;1097;-69
2022/10/04 01:48:37;;;;;;;;;;;;;;;17.24;68.73;101913.31;1020687;29;1147;-70
2022/10/04 01:49:28;;;;;;;;;;;;;;;17.25;68.51;101914.16;1021267;29;706;-69
2022/10/04 01:50:18;;;;;;;;;;;;;;;17.25;69.12;101919.56;1020995;29;1310;-70
2022/10/04 01:51:09;;;;;;;;;;;;;;;17.24;69.15;101915.13;1020021;29;1113;-70
2022/10/04 01:52:00;;;;;;;;;;;;;;;17.24;68.79;101916.00;1019242;29;1098;-70
2022/10/04 01:52:50;;;;;;;;;;;;;;;17.23;68.46;101903.50;1021714;28;1128;-71
2022/10/04 01:53:40;;;;;;;;;;;;;;;17.22;68.94;101906.31;1019464;29;1093;-70
2022/10/04 01:54:31;;;;;;;;;;;;;;;17.22;68.91;101898.22;1019782;29;1174;-70
2022/10/04 01:55:22;;;;;;;;;;;;;;;17.23;68.77;101890.03;1021646;29;1153;-69
2022/10/04 01:56:12;;;;;;;;;;;;;;;17.23;68.76;101898.13;1020655;29;1110;-69
2022/10/04 01:57:02;;;;;;;;;;;;;;;17.22;68.67;101888.31;1020075;29;1144;-69
2022/10/04 01:57:53;;;;;;;;;;;;;;;17.23;68.75;101891.88;1020864;29;1225;-69
2022/10/04 01:58:43;;;;;;;;;;;;;;;17.23;68.95;101886.47;1019997;29;1081;-70
2022/10/04 01:59:34;;;;;;;;;;;;;;;17.21;68.93;101891.13;1020727;29;1125;-70
2022/10/04 02:00:24;;;;;;;;;;;;;;;17.21;68.52;101891.13;1019903;29;1097;-70
2022/10/04 02:01:15;;;;;;;;;;;;;;;17.21;68.78;101891.13;1020904;29;1146;-70
2022/10/04 02:02:05;;;;;;;;;;;;;;;17.20;69.10;101886.72;1019262;29;1133;-70
2022/10/04 02:02:55;;;;;;;;;;;;;;;17.21;69.49;101886.59;1019945;29;1102;-70
2022/10/04 02:03:46;;;;;;;;;;;;;;;17.22;69.13;101892.84;1017262;29;699;-70
2022/10/04 02:04:37;;;;;;;;;;;;;;;17.21;68.96;101894.69;1016670;29;709;-70
2022/10/04 02:05:28;;;;;;;;;;;;;;;17.22;68.27;101890.16;1016724;29;588;-69
2022/10/04 02:06:19;;;;;;;;;;;;;;;17.20;68.99;101889.41;1016331;29;690;-69
2022/10/04 02:07:09;;;;;;;;;;;;;;;17.19;68.59;101888.56;1016675;29;699;-70
2022/10/04 02:08:00;;;;;;;;;;;;;;;17.20;68.53;101889.41;1016747;29;737;-70
2022/10/04 02:08:50;;;;;;;;;;;;;;;17.20;69.05;101889.41;1016633;29;714;-70
2022/10/04 02:09:42;;;;;;;;;;;;;;;17.20;69.06;101886.72;1016155;29;643;-69
2022/10/04 02:10:35;;;;;;;;;;;;;;;17.20;69.13;101881.31;1016195;29;712;-70
2022/10/04 02:11:25;;;;;;;;;;;;;;;17.20;68.60;101881.31;1016730;29;698;-70
2022/10/04 02:12:15;;;;;;;;;;;;;;;17.18;69.15;101878.78;1016744;29;1575;-70
2022/10/04 02:13:06;;;;;;;;;;;;;;;17.18;68.94;101878.78;1021227;29;648;-70
2022/10/04 02:13:56;;;;;;;;;;;;;;;17.19;68.69;101876.94;1021153;29;610;-70
2022/10/04 02:14:51;;;;;;;;;;;;;;;17.17;68.60;101870.81;1020641;29;634;-70
2022/10/04 02:15:41;;;;;;;;;;;;;;;17.18;68.43;101869.84;1021082;29;575;-70
2022/10/04 02:16:32;;;;;;;;;;;;;;;17.18;69.50;101869.84;1021136;29;701;-70
2022/10/04 02:17:22;;;;;;;;;;;;;;;17.17;69.00;101868.97;1021165;29;1563;-70
2022/10/04 02:18:13;;;;;;;;;;;;;;;17.17;68.78;101863.59;1021163;29;700;-70
2022/10/04 02:19:03;;;;;;;;;;;;;;;17.18;68.69;101859.06;1021149;29;816;-70
2022/10/04 02:19:54;;;;;;;;;;;;;;;17.19;68.65;101858.09;1021141;29;1949;-70
2022/10/04 02:20:44;;;;;;;;;;;;;;;17.18;68.28;101859.06;1021180;29;554;-70
2022/10/04 02:21:35;;;;;;;;;;;;;;;17.17;68.87;101852.81;1021183;29;752;-70
2022/10/04 02:22:25;;;;;;;;;;;;;;;17.16;68.88;101848.41;1021057;29;871;-70
2022/10/04 02:23:16;;;;;;;;;;;;;;;17.16;68.88;101844.84;1020637;29;642;-70
2022/10/04 02:24:06;;;;;;;;;;;;;;;17.14;69.17;101836.88;1024842;29;642;-70
2022/10/04 02:24:56;;;;;;;;;;;;;;;17.16;68.50;101847.53;1024223;29;683;-70
2022/10/04 02:25:47;;;;;;;;;;;;;;;17.15;68.84;101849.38;1020662;29;783;-70
2022/10/04 02:26:37;;;;;;;;;;;;;;;17.16;69.42;101839.47;1021022;29;670;-70
2022/10/04 02:27:28;;;;;;;;;;;;;;;17.15;68.93;101838.59;1020469;29;681;-70
2022/10/04 02:28:18;;;;;;;;;;;;;;;17.15;69.50;101829.66;1021243;29;1590;-69
2022/10/04 02:29:09;;;;;;;;;;;;;;;17.16;68.85;101828.69;1024630;29;693;-70
2022/10/04 02:29:59;;;;;;;;;;;;;;;17.15;68.72;101827.81;1024425;29;717;-70
2022/10/04 02:33:09;;;;;;;;;;;;;;;17.13;69.05;101824.38;1025035;29;865;-70
2022/10/04 02:33:59;;;;;;;;;;;;;;;17.14;69.27;101819.84;1024471;29;619;-70
2022/10/04 02:34:50;;;;;;;;;;;;;;;17.15;68.88;101816.19;1024511;29;666;-70
2022/10/04 02:35:40;;;;;;;;;;;;;;;17.14;68.83;101814.47;1024583;29;639;-70
2022/10/04 02:36:32;;;;;;;;;;;;;;;17.14;68.76;101814.47;1024557;29;642;-70
2022/10/04 02:37:22;;;;;;;;;;;;;;;17.14;68.90;101817.16;1023351;29;1629;-70
2022/10/04 02:38:13;;;;;;;;;;;;;;;17.13;68.93;101816.31;1024316;29;1136;-71
2022/10/04 02:39:03;;;;;;;;;;;;;;;17.13;69.16;101821.69;1024393;29;772;-70
2022/10/04 02:39:54;;;;;;;;;;;;;;;17.13;68.99;101819.00;1024524;29;1906;-70
2022/10/04 02:40:45;;;;;;;;;;;;;;;17.13;68.75;101810.06;1024452;29;647;-71
2022/10/04 02:41:35;;;;;;;;;;;;;;;17.12;69.04;101813.72;1028756;28;650;-70
2022/10/04 02:42:26;;;;;;;;;;;;;;;17.12;68.98;101817.28;1028754;28;686;-70
2022/10/04 02:43:16;;;;;;;;;;;;;;;17.12;69.32;101816.41;1025256;28;634;-70
2022/10/04 02:44:07;;;;;;;;;;;;;;;17.12;69.19;101816.41;1024121;29;658;-70
2022/10/04 02:44:57;;;;;;;;;;;;;;;17.13;68.77;101820.84;1016675;29;658;-70
2022/10/04 02:45:47;;;;;;;;;;;;;;;17.12;68.76;101821.81;1019940;29;650;-71
2022/10/04 02:46:38;;;;;;;;;;;;;;;17.11;69.33;101817.41;1017216;29;655;-70
2022/10/04 02:47:28;;;;;;;;;;;;;;;17.10;68.88;101818.38;1017694;29;638;-71
2022/10/04 02:48:20;;;;;;;;;;;;;;;17.11;69.33;101820.94;1017656;29;619;-70
2022/10/04 02:49:10;;;;;;;;;;;;;;;17.13;68.42;101818.13;1017142;29;624;-70
2022/10/04 02:50:01;;;;;;;;;;;;;;;17.11;68.26;101820.09;1017172;29;643;-70
2022/10/04 02:50:51;;;;;;;;;;;;;;;17.10;68.63;101812.97;1019258;29;1588;-70
2022/10/04 02:51:41;;;;;;;;;;;;;;;17.10;68.80;101812.97;1020440;29;625;-70
2022/10/04 02:52:32;;;;;;;;;;;;;;;17.11;68.46;101809.31;1021038;29;630;-70
2022/10/04 02:53:23;;;;;;;;;;;;;;;17.10;68.78;101804.91;1020968;29;643;-70
2022/10/04 02:54:14;;;;;;;;;;;;;;;17.08;69.09;101796.94;1020528;29;627;-70
2022/10/04 02:55:04;;;;;;;;;;;;;;;17.09;68.96;101803.19;1021056;29;650;-70
2022/10/04 02:55:54;;;;;;;;;;;;;;;17.09;68.59;101797.78;1020967;29;635;-70
2022/10/04 02:56:45;;;;;;;;;;;;;;;17.09;68.61;101797.78;1021025;29;1595;-70
2022/10/04 02:57:35;;;;;;;;;;;;;;;17.09;68.82;101801.34;1021049;29;654;-70
2022/10/04 02:58:26;;;;;;;;;;;;;;;17.08;69.24;101798.78;1020623;29;725;-70
2022/10/04 02:59:16;;;;;;;;;;;;;;;17.08;69.07;101796.06;1020970;29;690;-70
2022/10/04 03:00:07;;;;;;;;;;;;;;;17.08;68.65;101798.78;1020193;29;1902;-70
2022/10/04 03:00:57;;;;;;;;;;;;;;;17.07;68.38;101799.75;1024622;28;1141;-70
2022/10/04 03:01:48;;;;;;;;;;;;;;;17.07;68.85;101799.75;1020155;29;576;-70
2022/10/04 03:02:39;;;;;;;;;;;;;;;17.07;69.15;101797.06;1019878;29;634;-70
2022/10/04 03:03:29;;;;;;;;;;;;;;;17.08;68.48;101806.84;1020414;29;646;-70
2022/10/04 03:04:19;;;;;;;;;;;;;;;17.07;68.60;101799.75;1020353;29;620;-70
2022/10/04 03:05:10;;;;;;;;;;;;;;;17.07;68.31;101797.06;1020527;29;683;-70
2022/10/04 03:06:00;;;;;;;;;;;;;;;17.06;68.30;101798.88;1020387;29;676;-70
2022/10/04 03:06:51;;;;;;;;;;;;;;;17.07;68.26;101791.66;1017037;29;757;-70
2022/10/04 03:07:41;;;;;;;;;;;;;;;17.07;68.38;101802.44;1017569;29;635;-70
2022/10/04 03:08:32;;;;;;;;;;;;;;;17.05;68.92;101790.91;1018836;29;1543;-69
2022/10/04 03:09:22;;;;;;;;;;;;;;;17.04;68.80;101789.22;1020876;29;700;-70
2022/10/04 03:10:14;;;;;;;;;;;;;;;17.04;68.36;101790.06;1020406;29;689;-69
2022/10/04 03:11:04;;;;;;;;;;;;;;;17.05;68.94;101793.63;1021060;29;593;-69
2022/10/04 03:11:55;;;;;;;;;;;;;;;17.03;68.41;101788.34;1020317;29;593;-69
2022/10/04 03:12:45;;;;;;;;;;;;;;;17.04;69.11;101786.50;1020201;29;722;-70
2022/10/04 03:13:36;;;;;;;;;;;;;;;17.04;68.84;101786.50;1020343;29;718;-70
2022/10/04 03:14:26;;;;;;;;;;;;;;;17.02;68.44;101775.03;1020854;29;717;-70
2022/10/04 03:15:17;;;;;;;;;;;;;;;17.06;69.03;101781.88;1020337;29;623;-70
2022/10/04 03:16:07;;;;;;;;;;;;;;;17.04;68.83;101778.44;1020457;29;675;-70
2022/10/04 03:16:59;;;;;;;;;;;;;;;17.02;69.07;101777.72;1020674;29;1638;-70
2022/10/04 03:17:49;;;;;;;;;;;;;;;17.03;68.49;101777.56;1020934;29;594;-69
2022/10/04 03:18:40;;;;;;;;;;;;;;;17.03;68.95;101774.88;1020370;29;752;-69
2022/10/04 03:19:30;;;;;;;;;;;;;;;17.02;68.85;101779.41;1020869;29;627;-69
2022/10/04 03:20:21;;;;;;;;;;;;;;;17.02;68.35;101775.03;1020844;29;666;-69
2022/10/04 03:21:13;;;;;;;;;;;;;;;17.00;69.31;101776.00;1019913;29;792;-71
2022/10/04 03:22:03;;;;;;;;;;;;;;;17.00;68.76;101776.00;1024665;29;709;-70
2022/10/04 03:22:57;;;;;;;;;;;;;;;17.00;69.04;101776.00;1024030;29;733;-70
2022/10/04 03:23:47;;;;;;;;;;;;;;;17.00;69.20;101772.47;1020527;29;658;-69
2022/10/04 03:24:38;;;;;;;;;;;;;;;16.99;68.88;101774.28;1020391;29;650;-70
2022/10/04 03:25:28;;;;;;;;;;;;;;;17.00;69.03;101772.47;1020866;29;702;-70
2022/10/04 03:26:19;;;;;;;;;;;;;;;17.00;68.73;101773.31;1020394;29;666;-70
2022/10/04 03:27:09;;;;;;;;;;;;;;;16.99;68.91;101771.59;1020841;29;618;-70
2022/10/04 03:28:00;;;;;;;;;;;;;;;17.00;68.83;101775.16;1020854;29;738;-70
2022/10/04 03:28:51;;;;;;;;;;;;;;;16.99;68.32;101770.72;1022376;29;1661;-70
2022/10/04 03:29:44;;;;;;;;;;;;;;;17.00;68.51;101780.53;1024889;29;819;-69
2022/10/04 03:30:35;;;;;;;;;;;;;;;16.99;69.08;101782.38;1024324;29;631;-70
2022/10/04 03:31:26;;;;;;;;;;;;;;;16.99;68.67;101773.44;1028503;28;706;-69
2022/10/04 03:32:17;;;;;;;;;;;;;;;16.98;68.95;101769.88;1027934;28;710;-69
2022/10/04 03:33:08;;;;;;;;;;;;;;;16.99;68.24;101771.59;1024287;29;627;-69
2022/10/04 03:33:58;;;;;;;;;;;;;;;16.99;69.47;101773.44;1024373;29;686;-69
2022/10/04 03:34:49;;;;;;;;;;;;;;;16.98;69.13;101767.19;1024320;29;865;-69
2022/10/04 03:35:39;;;;;;;;;;;;;;;16.99;68.77;101774.28;1023958;29;881;-69
2022/10/04 03:36:29;;;;;;;;;;;;;;;16.99;68.95;101774.28;1024268;29;635;-69
2022/10/04 03:37:20;;;;;;;;;;;;;;;16.99;68.50;101785.06;1024296;29;639;-70
2022/10/04 03:38:11;;;;;;;;;;;;;;;16.97;68.82;101775.38;1024090;29;1394;-70
2022/10/04 03:39:02;;;;;;;;;;;;;;;16.97;69.10;101773.53;1024358;29;1110;-70
2022/10/04 03:39:53;;;;;;;;;;;;;;;16.97;69.06;101776.25;1024378;29;1895;-70
2022/10/04 03:40:44;;;;;;;;;;;;;;;16.95;68.49;101772.78;1028559;28;729;-70
2022/10/04 03:41:34;;;;;;;;;;;;;;;16.96;68.56;101769.13;1028007;28;647;-69
2022/10/04 03:42:24;;;;;;;;;;;;;;;16.97;69.08;101773.53;1024386;29;639;-69
2022/10/04 03:43:15;;;;;;;;;;;;;;;16.96;69.13;101779.03;1024378;29;745;-70
2022/10/04 03:44:05;;;;;;;;;;;;;;;16.96;69.24;101773.66;1020924;29;686;-70
2022/10/04 03:44:56;;;;;;;;;;;;;;;16.96;69.22;101773.66;1020423;29;651;-69
2022/10/04 03:45:46;;;;;;;;;;;;;;;16.96;68.47;101774.53;1020420;29;703;-70
2022/10/04 03:46:37;;;;;;;;;;;;;;;16.95;68.63;101775.50;1021542;28;726;-70
2022/10/04 03:47:27;;;;;;;;;;;;;;;16.95;68.95;101771.94;1020454;29;642;-70
2022/10/04 03:48:17;;;;;;;;;;;;;;;16.92;69.18;101770.34;1020248;29;698;-70
2022/10/04 03:49:08;;;;;;;;;;;;;;;16.94;69.39;101762.16;1020436;29;599;-69
2022/10/04 03:49:58;;;;;;;;;;;;;;;16.92;68.72;101775.72;1019730;29;601;-70
2022/10/04 03:50:49;;;;;;;;;;;;;;;16.94;69.40;101770.22;1020407;29;813;-69
2022/10/04 03:51:39;;;;;;;;;;;;;;;16.93;68.87;101760.44;1020450;29;694;-70
2022/10/04 03:52:30;;;;;;;;;;;;;;;16.93;68.80;101763.13;1020333;29;691;-69
2022/10/04 03:53:20;;;;;;;;;;;;;;;16.92;68.87;101762.25;1020664;29;1488;-69
2022/10/04 03:54:11;;;;;;;;;;;;;;;16.92;68.79;101762.25;1020754;29;1610;-69
2022/10/04 03:55:01;;;;;;;;;;;;;;;16.91;68.61;101760.53;1020860;29;630;-69
2022/10/04 03:55:51;;;;;;;;;;;;;;;16.91;68.97;101763.22;1020977;29;653;-69
2022/10/04 03:56:42;;;;;;;;;;;;;;;16.93;69.15;101771.19;1020833;29;697;-70
2022/10/04 03:57:32;;;;;;;;;;;;;;;16.92;68.83;101766.78;1020252;29;631;-70
2022/10/04 03:58:24;;;;;;;;;;;;;;;16.93;69.13;101773.88;1020792;29;662;-70
2022/10/04 03:59:14;;;;;;;;;;;;;;;16.93;69.14;101772.06;1020841;29;722;-70
2022/10/04 04:00:05;;;;;;;;;;;;;;;16.93;69.01;101768.50;1020586;29;1899;-69
2022/10/04 04:00:56;;;;;;;;;;;;;;;16.92;69.04;101764.94;1016992;29;737;-70
2022/10/04 04:01:46;;;;;;;;;;;;;;;16.92;68.95;101767.66;1020386;29;619;-70
2022/10/04 04:02:37;;;;;;;;;;;;;;;16.91;68.96;101765.94;1019849;29;1219;-70
2022/10/04 04:03:27;;;;;;;;;;;;;;;16.91;68.27;101765.94;1016926;29;687;-70
2022/10/04 04:04:18;;;;;;;;;;;;;;;16.91;69.15;101760.53;1017465;29;651;-70
2022/10/04 04:05:08;;;;;;;;;;;;;;;16.91;68.27;101765.94;1017046;29;750;-70
2022/10/04 04:05:59;;;;;;;;;;;;;;;16.91;68.47;101757.84;1017000;29;628;-70
2022/10/04 04:06:49;;;;;;;;;;;;;;;16.92;69.04;101756.00;1017478;29;659;-70
2022/10/04 04:07:40;;;;;;;;;;;;;;;16.92;69.03;101762.25;1017010;29;647;-70
2022/10/04 04:08:30;;;;;;;;;;;;;;;16.92;68.37;101754.19;1016965;29;1055;-70
2022/10/04 04:09:21;;;;;;;;;;;;;;;16.91;69.23;101760.53;1017557;29;710;-70
2022/10/04 04:10:11;;;;;;;;;;;;;;;16.92;68.65;101745.25;1016958;29;730;-70
2022/10/04 04:11:02;;;;;;;;;;;;;;;16.92;69.10;101754.19;1016920;29;638;-70
2022/10/04 04:11:52;;;;;;;;;;;;;;;16.92;68.88;101748.78;1016943;29;628;-69
2022/10/04 04:12:45;;;;;;;;;;;;;;;16.92;69.05;101750.63;1017385;29;658;-70
2022/10/04 04:13:35;;;;;;;;;;;;;;;16.91;69.10;101749.78;1017450;29;642;-70
2022/10/04 04:14:25;;;;;;;;;;;;;;;16.93;68.23;101752.34;1016926;29;531;-70
2022/10/04 04:15:16;;;;;;;;;;;;;;;16.92;69.01;101748.78;1016809;29;670;-70
2022/10/04 04:16:06;;;;;;;;;;;;;;;16.92;68.57;101751.50;1020004;29;1524;-70
2022/10/04 04:16:57;;;;;;;;;;;;;;;16.92;68.88;101740.72;1024171;29;697;-69
2022/10/04 04:17:48;;;;;;;;;;;;;;;16.91;68.76;101755.16;1021373;29;1653;-69
2022/10/04 04:18:39;;;;;;;;;;;;;;;16.92;68.86;101751.50;1020826;29;650;-69
2022/10/04 04:19:29;;;;;;;;;;;;;;;16.93;68.30;101747.81;1024534;28;1645;-69
2022/10/04 04:20:20;;;;;;;;;;;;;;;16.93;68.81;101758.59;1023976;29;721;-69
2022/10/04 04:21:10;;;;;;;;;;;;;;;16.93;68.48;101757.72;1021443;28;658;-69
2022/10/04 04:22:01;;;;;;;;;;;;;;;16.92;68.32;101748.78;1021444;29;694;-69
2022/10/04 04:22:51;;;;;;;;;;;;;;;16.90;68.35;101750.75;1021546;29;670;-69
2022/10/04 04:23:42;;;;;;;;;;;;;;;16.92;68.81;101746.09;1021609;29;646;-69
2022/10/04 04:24:32;;;;;;;;;;;;;;;16.93;68.44;101752.34;1021573;29;669;-69
2022/10/04 04:25:23;;;;;;;;;;;;;;;16.91;68.89;101755.16;1021512;29;654;-69
2022/10/04 04:26:14;;;;;;;;;;;;;;;16.91;68.84;101752.47;1021524;29;618;-70
2022/10/04 04:27:04;;;;;;;;;;;;;;;16.93;69.03;101753.22;1021559;29;615;-69
2022/10/04 04:27:55;;;;;;;;;;;;;;;16.93;68.56;101755.91;1021632;29;701;-69
2022/10/04 04:28:47;;;;;;;;;;;;;;;16.92;68.04;101754.19;1021574;29;642;-69